Time;durP1;ratioP1;P1;durP2;ratioP2;P2;SDS_P1;SDS_P2;PMS_P1;PMS_P2;Temp;Humidity;BMP_temperature;BMP_pressure;BME280_temperature;BME280_humidity;BME280_pressure;Samples;Min_cycle;Max_cycle;Signal;HPM_P1;HPM_P2
2022/08/18 00:00:15;;;;;;;41.67;33.20;;;19.60;99.90;19.20;100208;;;;588915;241;24084;-79
2022/08/18 00:02:47;;;;;;;42.50;34.13;;;19.60;99.90;19.20;100213;;;;585405;241;25170;-79
2022/08/18 00:05:13;;;;;;;42.67;33.13;;;19.60;99.90;19.20;100213;;;;585256;241;24081;-82
2022/08/18 00:07:41;;;;;;;42.07;32.00;;;19.60;99.90;19.20;100218;;;;592428;241;24133;-81
2022/08/18 00:10:09;;;;;;;41.73;32.63;;;19.70;99.90;19.20;100216;;;;588762;241;24079;-81
2022/08/18 00:12:38;;;;;;;45.77;33.57;;;19.70;99.90;19.20;100209;;;;588627;241;24040;-80
2022/08/18 00:15:06;;;;;;;46.43;34.60;;;19.70;99.90;19.20;100204;;;;593756;241;24061;-81
2022/08/18 00:17:34;;;;;;;48.63;35.30;;;19.70;99.90;19.30;100208;;;;591492;241;24121;-80
2022/08/18 00:20:03;;;;;;;48.97;36.53;;;19.70;99.90;19.30;100210;;;;584091;241;24064;-81
2022/08/18 00:22:35;;;;;;;48.87;36.60;;;19.80;99.90;19.30;100213;;;;584730;241;24192;-81
2022/08/18 00:25:00;;;;;;;46.77;36.43;;;19.80;99.90;19.30;100209;;;;584529;241;24095;-81
2022/08/18 00:27:29;;;;;;;44.33;34.07;;;19.70;99.90;19.30;100211;;;;587814;241;23112;-81
2022/08/18 00:29:57;;;;;;;45.97;35.13;;;19.70;99.90;19.30;100218;;;;587802;241;24058;-80
2022/08/18 00:32:29;;;;;;;43.97;33.67;;;19.70;99.90;19.20;100208;;;;584062;237;24098;-81
2022/08/18 00:34:56;;;;;;;44.23;33.63;;;19.70;99.90;19.20;100212;;;;584538;241;24123;-81
2022/08/18 00:37:25;;;;;;;43.27;36.00;;;19.70;99.90;19.20;100215;;;;573824;246;24120;-80
2022/08/18 00:39:54;;;;;;;44.83;34.43;;;19.70;99.90;19.20;100210;;;;588209;241;24135;-80
2022/08/18 00:42:23;;;;;;;44.80;34.23;;;19.70;99.90;19.20;100217;;;;588204;241;24109;-80
2022/08/18 00:44:51;;;;;;;60.03;52.08;;;19.70;99.90;19.20;100212;;;;586436;239;35105;-79
2022/08/18 00:47:20;;;;;;;50.50;39.23;;;19.70;99.90;19.30;100205;;;;588207;241;24075;-79
2022/08/18 00:49:49;;;;;;;54.60;39.00;;;19.70;99.90;19.30;100216;;;;584717;241;25130;-80
2022/08/18 00:52:17;;;;;;;43.97;36.53;;;19.70;99.90;19.30;100213;;;;584731;240;24072;-79
2022/08/18 00:54:46;;;;;;;63.20;51.88;;;19.70;99.90;19.30;100210;;;;579764;241;46116;-80
2022/08/18 00:57:17;;;;;;;48.57;40.43;;;19.80;99.90;19.30;100211;;;;584683;241;23089;-80
2022/08/18 00:59:43;;;;;;;46.77;36.03;;;19.80;99.90;19.30;100206;;;;588003;240;24150;-81
2022/08/18 01:02:12;;;;;;;44.07;35.60;;;19.70;99.90;19.30;100210;;;;591641;240;23069;-79
2022/08/18 01:04:52;;;;;;;46.77;35.40;;;19.70;99.90;19.30;100213;;;;585588;241;23189;-79
2022/08/18 01:07:20;;;;;;;44.40;33.50;;;19.70;99.90;19.30;100215;;;;591521;241;24108;-80
2022/08/18 01:09:52;;;;;;;42.60;35.50;;;19.70;99.90;19.30;100207;;;;592297;241;24071;-80
2022/08/18 01:12:16;;;;;;;41.90;32.83;;;19.70;99.90;19.30;100217;;;;594167;241;24072;-80
2022/08/18 01:14:44;;;;;;;44.67;33.07;;;19.70;99.90;19.30;100217;;;;592167;241;24043;-80
2022/08/18 01:22:48;;;;;;;41.47;33.07;;;19.70;99.90;19.30;100214;;;;573392;246;24075;-80
2022/08/18 01:28:02;;;;;;;48.93;32.87;;;19.70;99.90;19.40;100208;;;;594380;241;24021;-81
2022/08/18 01:30:29;;;;;;;52.47;33.73;;;19.80;99.90;19.40;100214;;;;583313;241;24064;-80
2022/08/18 01:32:57;;;;;;;56.27;36.40;;;19.80;99.90;19.50;100211;;;;572695;246;24186;-79
2022/08/18 01:35:25;;;;;;;57.40;37.50;;;19.90;99.90;19.60;100210;;;;582800;241;24083;-80
2022/08/18 01:37:53;;;;;;;115.80;60.78;;;20.00;99.90;19.70;100212;;;;582858;241;35204;-80
2022/08/18 01:40:21;;;;;;;87.10;45.00;;;20.10;99.90;19.70;100206;;;;583017;241;24041;-81
2022/08/18 01:42:49;;;;;;;72.17;40.77;;;20.20;99.90;19.80;100203;;;;574189;246;24080;-78
2022/08/18 01:45:17;;;;;;;76.73;39.90;;;20.20;99.90;19.90;100215;;;;593963;241;24095;-79
2022/08/18 01:47:49;;;;;;;90.90;39.53;;;20.30;99.90;19.90;100202;;;;593856;238;24097;-80
2022/08/18 01:50:13;;;;;;;96.80;40.10;;;20.40;99.90;19.90;100198;;;;584246;241;24105;-80
2022/08/18 01:52:41;;;;;;;91.07;39.90;;;20.40;99.90;20.00;100198;;;;587965;241;24078;-80
2022/08/18 01:55:09;;;;;;;104.13;41.13;;;20.50;99.90;20.00;100199;;;;587818;241;24066;-79
2022/08/18 01:57:43;;;;;;;146.60;39.00;;;20.50;99.90;20.10;100189;;;;584581;241;24044;-81
2022/08/18 02:00:07;;;;;;;160.27;55.10;;;20.50;99.90;20.10;100200;;;;579353;241;46012;-80
2022/08/18 02:02:35;;;;;;;273.53;48.23;;;20.60;99.90;20.20;100198;;;;584272;241;23084;-80
2022/08/18 02:05:03;;;;;;;186.50;40.80;;;20.60;99.90;20.20;100193;;;;593592;241;25130;-78
2022/08/18 02:07:31;;;;;;;172.00;36.07;;;20.60;99.90;20.20;100201;;;;591075;241;24053;-81
2022/08/18 02:09:59;;;;;;;235.27;37.13;;;20.60;99.90;20.20;100196;;;;587881;241;24066;-82
2022/08/18 02:12:27;;;;;;;188.13;37.00;;;20.60;99.90;20.20;100191;;;;584436;241;24058;-82
2022/08/18 02:14:54;;;;;;;246.00;36.97;;;20.60;99.90;20.30;100190;;;;589157;241;24075;-82
2022/08/18 02:17:22;;;;;;;197.03;36.20;;;20.60;99.90;20.30;100195;;;;589025;241;23119;-82
2022/08/18 02:19:50;;;;;;;228.47;36.97;;;20.70;99.90;20.30;100191;;;;594829;241;24085;-82
2022/08/18 02:22:18;;;;;;;299.63;38.30;;;20.70;99.90;20.30;100192;;;;585649;241;23130;-83
2022/08/18 02:24:46;;;;;;;247.52;53.22;;;20.70;99.90;20.30;100200;;;;587053;241;35228;-81
2022/08/18 02:27:17;;;;;;;204.27;40.80;;;20.70;99.90;20.30;100202;;;;592205;241;24103;-83
2022/08/18 02:29:43;;;;;;;242.20;41.00;;;20.80;99.90;20.40;100207;;;;594455;241;25149;-81
2022/08/18 02:32:11;;;;;;;205.93;36.47;;;20.80;99.90;20.40;100204;;;;585061;241;23122;-81
2022/08/18 02:34:43;;;;;;;210.93;35.00;;;20.80;99.90;20.40;100199;;;;588231;241;24044;-81
2022/08/18 02:37:10;;;;;;;206.20;33.67;;;20.80;99.90;20.40;100202;;;;584588;241;24117;-82
2022/08/18 02:39:36;;;;;;;223.07;35.40;;;20.80;99.90;20.40;100203;;;;584623;241;23080;-80
2022/08/18 02:42:05;;;;;;;257.97;37.37;;;20.80;99.90;20.40;100197;;;;585129;241;24063;-80
2022/08/18 02:44:33;;;;;;;166.40;36.47;;;20.80;99.90;20.30;100198;;;;585238;241;24045;-82
2022/08/18 02:47:01;;;;;;;124.27;34.87;;;20.70;99.90;20.40;100195;;;;584200;241;23084;-82
2022/08/18 02:49:29;;;;;;;278.23;38.53;;;20.80;99.90;20.40;100182;;;;573405;246;23177;-79
2022/08/18 02:51:57;;;;;;;135.13;32.13;;;20.80;99.90;20.30;100181;;;;587830;241;24097;-79
2022/08/18 02:54:25;;;;;;;128.60;32.27;;;20.80;99.90;20.30;100181;;;;584359;241;24046;-80
2022/08/18 02:56:55;;;;;;;175.17;30.60;;;20.70;99.90;20.30;100184;;;;573403;246;24045;-81
2022/08/18 02:59:26;;;;;;;248.83;33.90;;;20.70;99.90;20.30;100181;;;;587852;241;23036;-79
2022/08/18 03:01:53;;;;;;;230.47;33.73;;;20.70;99.90;20.30;100192;;;;587902;241;24066;-81
2022/08/18 03:04:21;;;;;;;168.37;31.80;;;20.70;99.90;20.30;100186;;;;587898;241;23075;-81
2022/08/18 03:06:49;;;;;;;157.63;29.10;;;20.70;99.90;20.30;100190;;;;573728;246;23111;-82
2022/08/18 03:09:17;;;;;;;182.03;31.77;;;20.70;99.90;20.30;100196;;;;584477;241;23066;-81
2022/08/18 03:11:44;;;;;;;127.57;27.77;;;20.70;99.90;20.30;100195;;;;582020;242;24209;-81
2022/08/18 03:14:15;;;;;;;117.53;28.63;;;20.60;99.90;20.30;100199;;;;584506;241;24065;-79
2022/08/18 03:16:40;;;;;;;113.67;28.20;;;20.70;99.90;20.30;100203;;;;584253;241;24157;-82
2022/08/18 03:19:08;;;;;;;139.43;29.67;;;20.70;99.90;20.30;100200;;;;591566;239;24097;-80
2022/08/18 03:21:37;;;;;;;105.00;29.30;;;20.70;99.90;20.30;100203;;;;593908;241;23096;-81
2022/08/18 03:24:05;;;;;;;166.00;29.40;;;20.60;99.90;20.30;100213;;;;588213;241;24043;-82
2022/08/18 03:26:37;;;;;;;140.50;30.73;;;20.70;99.90;20.40;100212;;;;589542;241;23081;-81
2022/08/18 03:29:01;;;;;;;125.70;30.13;;;20.70;99.90;20.40;100204;;;;583811;245;23441;-82
2022/08/18 03:31:30;;;;;;;158.90;30.63;;;20.80;99.90;20.40;100209;;;;594707;241;24057;-81
2022/08/18 03:33:57;;;;;;;142.40;30.63;;;20.80;99.90;20.40;100199;;;;585055;241;23082;-80
2022/08/18 03:36:25;;;;;;;162.25;45.70;;;20.80;99.90;20.40;100200;;;;568025;246;35281;-81
2022/08/18 03:38:53;;;;;;;200.47;38.43;;;20.80;99.90;20.40;100205;;;;584927;241;24055;-80
2022/08/18 03:41:22;;;;;;;256.13;39.20;;;20.80;99.90;20.50;100210;;;;591719;239;24073;-80
2022/08/18 03:43:51;;;;;;;273.13;38.00;;;20.90;99.90;20.50;100203;;;;592038;241;23083;-81
2022/08/18 03:46:19;;;;;;;194.47;37.30;;;20.80;99.90;20.50;100208;;;;574142;244;24102;-81
2022/08/18 03:48:46;;;;;;;238.00;41.77;;;20.90;99.90;20.50;100209;;;;594136;241;23086;-81
2022/08/18 03:51:20;;;;;;;227.73;42.47;;;20.90;99.90;20.50;100204;;;;584638;241;24058;-80
2022/08/18 03:53:48;;;;;;;287.07;42.80;;;20.90;99.90;20.50;100214;;;;583521;241;23185;-81
2022/08/18 03:56:16;;;;;;;274.83;44.33;;;20.90;99.90;20.50;100206;;;;585101;241;23096;-80
2022/08/18 03:58:56;;;;;;;200.47;44.27;;;20.90;99.90;20.50;100214;;;;591895;241;24063;-80
2022/08/18 04:01:24;;;;;;;189.57;44.50;;;20.90;99.90;20.60;100206;;;;585057;241;24077;-80
2022/08/18 04:03:52;;;;;;;220.23;49.97;;;21.00;99.90;20.60;100217;;;;591238;241;24097;-79
2022/08/18 04:06:25;;;;;;;174.57;50.37;;;21.00;99.90;20.60;100220;;;;591574;241;24038;-80
2022/08/18 04:08:56;;;;;;;183.40;52.00;;;21.00;99.90;20.70;100218;;;;584809;241;24073;-80
2022/08/18 04:11:24;;;;;;;189.57;51.70;;;21.10;99.90;20.70;100218;;;;584845;241;23204;-79
2022/08/18 04:13:52;;;;;;;211.97;53.97;;;21.10;99.90;20.80;100220;;;;591719;241;24042;-80
2022/08/18 04:16:20;;;;;;;166.73;51.30;;;21.10;99.90;20.80;100218;;;;588293;241;24061;-80
2022/08/18 04:18:49;;;;;;;179.50;54.53;;;21.20;99.90;20.80;100218;;;;584854;241;24076;-81
2022/08/18 04:21:21;;;;;;;171.60;52.97;;;21.30;99.90;20.90;100218;;;;588200;241;24132;-80
2022/08/18 04:23:49;;;;;;;174.90;54.73;;;21.30;99.90;20.90;100218;;;;574110;246;24135;-80
2022/08/18 04:26:18;;;;;;;178.40;56.53;;;21.30;99.90;21.00;100223;;;;593473;241;23052;-81
2022/08/18 04:28:46;;;;;;;158.30;54.77;;;21.50;99.90;21.10;100214;;;;587896;241;24037;-81
2022/08/18 04:31:14;;;;;;;143.00;55.23;;;21.40;99.90;21.20;100221;;;;584349;241;24070;-80
2022/08/18 04:33:42;;;;;;;128.37;53.47;;;21.50;99.90;21.20;100222;;;;593706;241;24107;-80
2022/08/18 04:36:10;;;;;;;169.07;75.85;;;21.60;99.90;21.40;100220;;;;582819;239;35160;-82
2022/08/18 04:38:40;;;;;;;150.43;62.73;;;21.90;99.90;21.50;100231;;;;575373;245;24084;-81
2022/08/18 04:41:07;;;;;;;125.73;57.70;;;21.90;99.90;21.50;100236;;;;594628;240;24148;-81
2022/08/18 04:43:35;;;;;;;119.07;53.30;;;21.90;99.90;21.70;100231;;;;588520;241;23085;-81
2022/08/18 04:46:04;;;;;;;103.50;52.33;;;22.00;99.90;21.80;100239;;;;585539;241;24074;-81
2022/08/18 04:48:34;;;;;;;108.57;51.77;;;22.20;99.90;21.80;100226;;;;594494;241;24083;-81
2022/08/18 04:51:06;;;;;;;106.17;51.43;;;22.30;99.90;22.00;100234;;;;584778;241;24099;-81
2022/08/18 04:53:44;;;;;;;103.97;52.23;;;22.30;99.90;22.10;100233;;;;585308;241;24067;-81
2022/08/18 04:56:13;;;;;;;85.60;51.37;;;22.60;99.90;22.30;100240;;;;594319;241;24061;-80
2022/08/18 04:58:41;;;;;;;78.97;47.63;;;22.60;99.90;22.40;100242;;;;573940;246;24037;-82
2022/08/18 05:01:09;;;;;;;75.97;47.97;;;22.80;99.90;22.60;100240;;;;588649;241;23123;-82
2022/08/18 05:03:37;;;;;;;70.57;45.73;;;22.90;99.90;22.80;100239;;;;585172;241;24024;-80
2022/08/18 05:06:08;;;;;;;67.73;44.73;;;23.10;99.90;23.00;100243;;;;588461;241;24057;-80
2022/08/18 05:08:33;;;;;;;59.60;43.50;;;23.40;99.90;23.20;100248;;;;583228;241;24124;-79
2022/08/18 05:11:04;;;;;;;57.67;42.03;;;23.60;99.90;23.50;100247;;;;588385;241;25177;-80
2022/08/18 05:13:29;;;;;;;50.83;40.23;;;23.90;99.90;23.70;100246;;;;584282;241;24126;-80
2022/08/18 05:16:02;;;;;;;45.27;36.27;;;24.60;99.90;24.30;100248;;;;602934;237;24033;-79
2022/08/18 05:18:26;;;;;;;42.93;36.37;;;25.00;99.90;24.60;100243;;;;580422;246;24088;-80
2022/08/18 05:20:58;;;;;;;36.60;32.10;;;25.50;99.90;24.90;100242;;;;572928;246;24056;-80
2022/08/18 05:23:23;;;;;;;35.67;30.13;;;25.90;99.90;25.10;100248;;;;573368;246;24144;-80
2022/08/18 05:25:51;;;;;;;31.60;28.27;;;25.90;99.90;25.80;100241;;;;593707;241;24113;-79
2022/08/18 05:28:19;;;;;;;32.87;26.23;;;26.40;99.90;26.30;100242;;;;591015;241;23102;-80
2022/08/18 05:30:47;;;;;;;25.17;22.63;;;26.80;99.90;26.80;100240;;;;587608;237;23055;-80
2022/08/18 05:33:15;;;;;;;26.53;23.40;;;27.30;99.90;27.20;100233;;;;587765;241;24116;-79
2022/08/18 05:35:43;;;;;;;31.73;25.80;;;27.70;99.90;27.80;100226;;;;587666;241;23095;-79
2022/08/18 05:38:23;;;;;;;34.00;26.03;;;29.00;99.90;28.60;100213;;;;591080;239;24153;-79
2022/08/18 05:41:06;;;;;;;25.43;22.93;;;28.90;99.90;29.50;100217;;;;584206;241;23058;-80
2022/08/18 05:43:34;;;;;;;26.67;20.65;;;29.80;99.90;30.40;100218;;;;584332;241;24085;-81
2022/08/18 05:46:04;;;;;;;35.90;23.77;;;30.70;99.90;30.70;100211;;;;591682;241;24092;-79
2022/08/18 05:48:30;;;;;;;25.77;19.52;;;31.10;99.90;31.10;100210;;;;594479;237;24074;-80
2022/08/18 05:51:01;;;;;;;23.05;19.75;;;31.50;99.90;31.50;100217;;;;593018;241;24084;-80
2022/08/18 05:56:45;;;;;;;24.65;21.60;;;32.00;99.90;32.00;100214;;;;593786;237;23106;-79
2022/08/18 05:58:47;;;;;;;25.55;18.67;;;32.90;99.90;32.40;100220;;;;578869;244;23082;-78
2022/08/18 06:01:17;;;;;;;20.62;17.42;;;33.10;99.90;32.60;100222;;;;587736;239;24089;-80
2022/08/18 06:03:55;;;;;;;26.75;17.70;;;33.10;99.90;32.60;100224;;;;587220;244;24122;-82
2022/08/18 06:06:29;;;;;;;22.33;17.08;;;33.10;99.90;32.40;100228;;;;588042;244;23071;-81
2022/08/18 06:09:21;;;;;;;19.87;17.75;;;33.00;99.90;32.30;100238;;;;573117;244;35199;-82
2022/08/18 06:11:51;;;;;;;17.80;15.77;;;32.90;99.90;32.20;100234;;;;587940;239;23092;-82
2022/08/18 06:14:17;;;;;;;28.10;18.52;;;32.80;99.90;32.60;100243;;;;587043;244;24103;-82
2022/08/18 06:17:03;;;;;;;28.23;16.75;;;33.00;99.90;32.80;100242;;;;578429;244;23127;-81
2022/08/18 06:19:43;;;;;;;19.30;17.15;;;33.50;99.20;33.10;100245;;;;578374;243;23073;-80
2022/08/18 06:22:16;;;;;;;20.88;16.67;;;33.50;99.20;33.80;100246;;;;578402;244;23124;-81
2022/08/18 06:25:00;;;;;;;23.30;15.15;;;34.60;94.20;34.30;100243;;;;572988;244;46240;-79
2022/08/18 06:27:39;;;;;;;15.30;13.32;;;34.60;94.20;34.70;100254;;;;577823;244;23143;-79
2022/08/18 06:30:22;;;;;;;19.40;14.15;;;35.10;92.70;35.30;100251;;;;587702;244;23080;-81
2022/08/18 06:33:20;;;;;;;15.50;12.80;;;35.60;90.10;35.40;100253;;;;577638;244;23068;-80
2022/08/18 06:35:49;;;;;;;15.65;12.32;;;35.80;86.60;35.60;100254;;;;578177;244;23069;-79
2022/08/18 06:38:37;;;;;;;16.10;12.48;;;36.30;82.60;36.00;100257;;;;578009;244;23062;-80
2022/08/18 06:41:11;;;;;;;15.02;13.50;;;36.30;82.60;36.50;100262;;;;578037;244;24099;-79
2022/08/18 06:43:39;;;;;;;19.70;14.38;;;36.80;81.30;37.10;100273;;;;587514;239;23056;-81
2022/08/18 06:46:13;;;;;;;24.58;13.77;;;37.30;78.90;37.60;100270;;;;586390;244;23074;-79
2022/08/18 06:48:46;;;;;;;22.62;14.00;;;37.90;76.50;37.80;100272;;;;586152;244;23097;-80
2022/08/18 06:51:12;;;;;;;32.83;14.73;;;38.50;72.10;38.10;100276;;;;586373;239;23078;-83
2022/08/18 06:54:02;;;;;;;27.13;14.07;;;38.80;71.20;38.40;100275;;;;586759;239;23089;-83
2022/08/18 06:56:39;;;;;;;23.95;14.13;;;38.70;71.10;38.80;100270;;;;580928;244;25356;-82
2022/08/18 06:59:22;;;;;;;13.93;12.65;;;39.10;69.50;39.10;100272;;;;577815;244;23118;-82
2022/08/18 07:01:56;;;;;;;16.73;12.82;;;39.50;68.00;39.50;100272;;;;579701;244;23089;-83
2022/08/18 07:04:36;;;;;;;13.57;12.18;;;39.80;67.00;39.80;100273;;;;587777;243;23123;-80
2022/08/18 07:07:16;;;;;;;13.93;11.98;;;40.10;64.80;39.70;100280;;;;588090;243;24101;-82
2022/08/18 07:09:44;;;;;;;14.38;12.65;;;40.20;63.70;39.90;100276;;;;573968;244;23068;-83
2022/08/18 07:12:13;;;;;;;14.00;12.65;;;40.40;62.30;39.80;100288;;;;578326;244;23107;-82
2022/08/18 07:14:44;;;;;;;27.05;13.62;;;40.40;61.60;40.00;100270;;;;586889;243;23065;-82
2022/08/18 07:17:21;;;;;;;14.80;12.85;;;40.40;61.60;40.20;100273;;;;587280;239;23067;-82
2022/08/18 07:20:07;;;;;;;14.13;12.70;;;40.60;61.70;40.40;100281;;;;578012;243;23122;-81
2022/08/18 07:23:02;;;;;;;13.62;12.43;;;40.70;60.80;40.70;100283;;;;578454;243;23117;-81
2022/08/18 07:25:42;;;;;;;32.47;16.17;;;41.10;59.70;40.70;100287;;;;588376;244;23081;-80
2022/08/18 07:28:31;;;;;;;14.68;13.02;;;41.10;58.80;40.80;100283;;;;587288;244;23124;-81
2022/08/18 07:31:26;;;;;;;19.90;12.63;;;41.30;59.00;41.60;100281;;;;578619;240;23118;-83
2022/08/18 07:34:19;;;;;;;13.15;11.65;;;41.80;58.30;42.20;100291;;;;588032;244;23077;-81
2022/08/18 07:36:55;;;;;;;15.30;13.68;;;42.40;56.50;42.60;100285;;;;581574;241;23068;-82
2022/08/18 07:39:23;;;;;;;14.35;12.50;;;42.80;55.90;43.00;100289;;;;587585;244;23099;-83
2022/08/18 07:42:03;;;;;;;15.48;11.88;;;43.20;55.60;43.40;100286;;;;586998;240;23116;-82
2022/08/18 07:44:42;;;;;;;16.73;12.05;;;43.70;54.50;43.70;100293;;;;578321;244;23075;-81
2022/08/18 07:47:25;;;;;;;12.88;11.45;;;44.10;53.00;44.00;100295;;;;577570;244;23149;-84
2022/08/18 07:49:57;;;;;;;13.68;12.40;;;44.40;51.60;43.80;100289;;;;587593;239;23068;-81
2022/08/18 07:52:45;;;;;;;23.35;12.77;;;44.30;51.20;43.70;100292;;;;577792;244;23113;-82
2022/08/18 07:55:18;;;;;;;13.20;11.12;;;44.20;51.40;44.10;100292;;;;587112;239;23071;-80
2022/08/18 07:58:17;;;;;;;13.38;11.63;;;44.60;50.40;44.10;100297;;;;586930;244;23113;-80
2022/08/18 08:00:50;;;;;;;11.20;10.07;;;44.50;50.30;44.00;100300;;;;577637;244;23095;-82
2022/08/18 08:03:36;;;;;;;11.38;10.38;;;44.60;49.90;44.30;100289;;;;587594;238;23075;-81
2022/08/18 08:06:10;;;;;;;11.88;10.40;;;44.70;49.60;44.40;100297;;;;587537;244;23117;-80
2022/08/18 08:09:06;;;;;;;13.13;10.55;;;44.90;48.50;44.10;100303;;;;577618;244;23092;-83
2022/08/18 08:12:11;;;;;;;12.80;9.48;;;44.90;48.50;44.40;100296;;;;578634;243;23114;-80
2022/08/18 08:14:45;;;;;;;11.27;9.88;;;45.00;48.40;44.40;100304;;;;587807;242;23092;-80
2022/08/18 08:17:31;;;;;;;11.27;9.60;;;44.90;48.30;44.10;100308;;;;588509;243;23098;-80
2022/08/18 08:20:26;;;;;;;10.55;9.73;;;44.80;48.10;43.40;100306;;;;587951;239;23061;-79
2022/08/18 08:23:20;;;;;;;11.32;10.20;;;44.30;48.70;42.70;100315;;;;578288;244;23091;-80
2022/08/18 08:26:16;;;;;;;11.65;10.02;;;43.60;49.40;41.70;100312;;;;587974;244;23116;-80
2022/08/18 08:28:50;;;;;;;10.77;9.40;;;42.70;50.20;41.30;100315;;;;588307;244;23058;-82
2022/08/18 08:31:27;;;;;;;12.55;10.50;;;42.10;51.00;41.50;100305;;;;586728;239;23129;-79
2022/08/18 08:33:58;;;;;;;12.85;9.90;;;42.40;51.10;41.90;100312;;;;578274;239;23085;-77
2022/08/18 08:36:32;;;;;;;11.20;10.18;;;42.40;51.10;42.20;100309;;;;586472;243;23098;-80
2022/08/18 08:39:03;;;;;;;13.02;10.57;;;42.80;50.70;42.60;100313;;;;586903;244;23078;-82
2022/08/18 08:41:42;;;;;;;12.02;11.02;;;43.20;50.20;43.00;100308;;;;583596;244;23105;-82
2022/08/18 08:44:13;;;;;;;11.12;9.98;;;43.50;49.50;43.10;100309;;;;587456;244;23165;-83
2022/08/18 08:46:56;;;;;;;10.05;9.18;;;43.80;49.60;43.80;100301;;;;577857;244;23080;-83
2022/08/18 08:49:42;;;;;;;14.75;10.18;;;44.40;49.10;44.80;100309;;;;587322;239;23141;-81
2022/08/18 08:52:16;;;;;;;11.45;10.25;;;45.20;48.00;45.30;100299;;;;573118;244;35142;-82
2022/08/18 08:54:55;;;;;;;10.85;9.85;;;45.80;47.10;45.20;100314;;;;578182;244;24083;-82
2022/08/18 08:57:26;;;;;;;11.43;10.15;;;46.00;46.70;45.70;100306;;;;578400;244;23073;-82
2022/08/18 08:59:55;;;;;;;9.77;8.80;;;46.40;46.30;45.90;100303;;;;578223;244;23120;-82
2022/08/18 09:03:10;;;;;;;11.38;10.38;;;46.70;46.30;46.80;100307;;;;578337;244;23053;-83
2022/08/18 09:05:56;;;;;;;10.48;9.57;;;47.40;45.10;46.80;100303;;;;587759;239;23075;-83
2022/08/18 09:08:36;;;;;;;10.75;9.65;;;47.80;45.10;46.40;100305;;;;571592;244;24141;-83
2022/08/18 09:11:03;;;;;;;10.20;9.23;;;47.50;44.60;46.50;100304;;;;578367;244;23046;-82
2022/08/18 09:13:56;;;;;;;11.40;9.95;;;47.50;44.10;46.40;100302;;;;586744;244;23069;-81
2022/08/18 09:17:13;;;;;;;12.20;9.40;;;47.50;44.00;45.60;100306;;;;578499;244;23050;-81
2022/08/18 09:19:43;;;;;;;10.20;9.18;;;46.90;44.40;44.40;100306;;;;578080;244;23066;-83
2022/08/18 09:22:17;;;;;;;10.15;9.25;;;45.80;45.80;44.40;100305;;;;587518;244;23057;-81
2022/08/18 09:24:48;;;;;;;9.60;8.75;;;45.60;46.10;44.70;100307;;;;579504;244;23123;-81
2022/08/18 09:27:46;;;;;;;12.70;9.32;;;45.70;46.40;44.80;100303;;;;588315;242;23073;-82
2022/08/18 09:30:47;;;;;;;9.68;8.63;;;45.90;46.00;45.00;100307;;;;588814;242;23067;-83
2022/08/18 09:33:44;;;;;;;9.65;8.85;;;46.00;46.60;45.40;100302;;;;577254;244;23080;-81
2022/08/18 09:36:24;;;;;;;10.30;9.20;;;46.40;45.40;46.20;100299;;;;578742;244;23159;-81
2022/08/18 09:41:53;;;;;;;9.57;8.75;;;47.90;44.50;47.10;100300;;;;578308;244;23079;-82
2022/08/18 09:44:48;;;;;;;10.60;9.40;;;48.40;43.20;46.60;100296;;;;587248;242;23104;-81
2022/08/18 09:47:23;;;;;;;10.57;9.50;;;48.10;43.20;46.30;100295;;;;569717;244;23101;-80
2022/08/18 09:49:54;;;;;;;11.50;9.43;;;47.70;43.40;45.10;100296;;;;569490;244;23053;-82
2022/08/18 09:52:21;;;;;;;10.48;9.50;;;46.80;44.10;43.30;100304;;;;587344;239;23115;-79
2022/08/18 09:54:51;;;;;;;14.68;10.25;;;45.40;45.60;42.50;100304;;;;578999;244;23178;-79
2022/08/18 09:57:20;;;;;;;10.43;9.30;;;43.50;47.90;42.10;100300;;;;587637;239;23088;-81
2022/08/18 09:59:49;;;;;;;10.95;10.07;;;43.00;49.10;41.70;100305;;;;586579;244;23086;-79
2022/08/18 10:02:30;;;;;;;12.50;10.02;;;42.90;48.40;41.30;100300;;;;578299;244;23080;-82
2022/08/18 10:05:18;;;;;;;12.10;9.95;;;42.50;49.50;41.20;100310;;;;578130;244;23108;-79
2022/08/18 10:07:45;;;;;;;9.45;8.52;;;42.40;50.10;41.40;100305;;;;575642;244;23110;-81
2022/08/18 10:10:13;;;;;;;13.38;10.55;;;42.40;50.20;40.90;100311;;;;578285;244;27317;-78
2022/08/18 10:12:51;;;;;;;11.23;10.05;;;41.30;51.00;40.10;100307;;;;578267;244;23069;-80
2022/08/18 10:15:50;;;;;;;10.63;9.80;;;41.30;50.90;39.00;100311;;;;587399;244;23085;-80
2022/08/18 10:19:01;;;;;;;11.07;9.98;;;39.50;53.90;38.30;100306;;;;578420;244;23108;-76
2022/08/18 10:21:29;;;;;;;12.85;11.52;;;39.40;53.80;38.10;100309;;;;578342;244;23062;-80
2022/08/18 10:24:07;;;;;;;13.98;10.90;;;39.20;54.60;38.00;100310;;;;585873;244;23103;-79
2022/08/18 10:26:38;;;;;;;11.50;10.40;;;39.10;54.50;37.90;100304;;;;578392;244;23062;-80
2022/08/18 10:29:06;;;;;;;12.43;10.55;;;39.00;54.90;37.90;100296;;;;578489;244;23074;-81
2022/08/18 10:31:52;;;;;;;11.93;10.93;;;39.00;55.20;38.00;100298;;;;577917;244;23078;-79
2022/08/18 10:34:44;;;;;;;13.48;12.02;;;39.10;55.90;37.90;100305;;;;572734;242;24125;-79
2022/08/18 10:37:42;;;;;;;12.05;10.88;;;39.10;54.80;37.40;100298;;;;588814;238;23071;-78
2022/08/18 10:40:13;;;;;;;15.20;11.68;;;38.80;55.10;37.30;100297;;;;577228;249;23112;-81
2022/08/18 10:42:58;;;;;;;12.57;11.40;;;38.60;55.90;37.40;100288;;;;564155;249;23104;-82
2022/08/18 10:45:32;;;;;;;15.27;10.65;;;38.60;56.00;37.20;100292;;;;571934;244;23128;-79
2022/08/18 10:48:17;;;;;;;12.10;10.98;;;38.40;56.50;37.00;100296;;;;578362;243;23081;-78
2022/08/18 10:51:07;;;;;;;12.40;11.00;;;38.00;56.90;36.70;100290;;;;578843;244;23081;-80
2022/08/18 10:53:53;;;;;;;15.30;10.45;;;37.60;58.50;36.50;100288;;;;578455;244;23141;-79
2022/08/18 10:56:33;;;;;;;12.60;11.57;;;37.30;58.10;36.20;100280;;;;581635;241;23076;-81
2022/08/18 10:59:20;;;;;;;13.73;10.35;;;36.40;58.90;35.70;100276;;;;588053;243;23155;-78
2022/08/18 11:02:09;;;;;;;12.45;11.12;;;36.40;58.90;35.60;100279;;;;579047;244;23076;-79
2022/08/18 11:04:49;;;;;;;11.40;10.48;;;36.20;61.70;35.30;100286;;;;586569;244;23174;-79
2022/08/18 11:07:20;;;;;;;12.05;11.00;;;35.90;60.60;34.80;100281;;;;587985;244;23079;-79
2022/08/18 11:09:48;;;;;;;12.18;10.90;;;35.50;61.70;34.50;100268;;;;578756;244;23080;-78
2022/08/18 11:12:16;;;;;;;15.13;10.55;;;35.20;63.00;34.40;100276;;;;587129;239;23065;-78
2022/08/18 11:15:01;;;;;;;12.40;10.88;;;34.90;63.80;34.30;100277;;;;578101;244;23068;-79
2022/08/18 11:17:41;;;;;;;17.45;11.35;;;34.80;64.80;34.30;100273;;;;578374;244;23098;-80
2022/08/18 11:20:10;;;;;;;12.02;10.55;;;34.70;64.70;34.30;100266;;;;577730;244;23089;-80
2022/08/18 11:22:38;;;;;;;16.23;11.40;;;34.70;64.60;34.30;100269;;;;586927;244;23107;-79
2022/08/18 11:25:24;;;;;;;15.75;11.20;;;34.60;65.20;34.00;100278;;;;578378;244;23072;-78
2022/08/18 11:27:52;;;;;;;12.70;11.15;;;34.50;65.60;33.60;100266;;;;578077;244;23076;-77
2022/08/18 11:30:20;;;;;;;14.70;11.73;;;34.20;65.40;33.40;100269;;;;578180;244;24114;-78
2022/08/18 11:32:48;;;;;;;11.90;10.88;;;34.00;66.50;33.40;100264;;;;587608;241;23127;-78
2022/08/18 11:35:19;;;;;;;11.38;10.43;;;33.80;65.30;33.50;100258;;;;577985;244;24056;-77